Latest Weather Observations for Mount Gambier

IDS60801

Issued at 11:01 pm CST Monday 6 July 2015 (issued every 30 minutes, with the page automatically refreshed every 10 minutes)

About weather observations | Map of weather stations | Latest weather observations for SA | Other Formats
Station Details ID: 026021 Name: MOUNT GAMBIER AERO Lat: -37.75 Lon: 140.77 Height: 63.0 m
Data from the previous 72 hours. | See also: Recent months at Mount Gambier
Date/Time
CST
Temp
°C
App
Temp
°C
Dew
Point
Rel
Hum
%
Delta-T
°C
Wind Press
QNH
hPa
Press
MSL
hPa
Rain
since 9 am
mm
Dir
 
Spd
km/h
Gust
km/h
Spd
kts
Gust
kts
06/11:00pm 5.3 2.5 5.3 100 0.0 NE 9 9 5 5 1017.4 1017.5 0.6
06/10:55pm 6.1 3.4 5.4 95 0.3 NE 9 11 5 6 1017.3 1017.4 0.6
06/10:30pm 6.5 3.9 6.1 97 0.2 NNE 9 11 5 6 1017.3 1017.4 0.6
06/10:00pm 7.0 4.5 6.6 97 0.2 NNE 9 13 5 7 1017.2 1017.3 0.6
06/09:30pm 7.4 6.8 7.2 99 0.1 CALM 0 4 0 2 1017.0 1017.1 0.6
06/09:00pm 6.5 3.9 6.3 99 0.1 NNE 9 11 5 6 1016.7 1016.8 0.6
06/08:30pm 6.4 3.7 5.7 95 0.3 NNE 9 11 5 6 1016.5 1016.6 0.6
06/08:00pm 6.9 5.0 6.5 97 0.2 NE 6 9 3 5 1016.1 1016.2 0.6
06/07:32pm 7.9 6.9 7.3 96 0.3 N 2 6 1 3 1015.9 1016.0 0.6
06/07:30pm 7.7 6.7 7.3 97 0.2 NNW 2 7 1 4 1015.9 1016.0 0.6
06/07:00pm 8.4 7.9 8.0 97 0.2 CALM 0 2 0 1 1015.6 1015.7 0.6
06/06:30pm 8.8 6.3 8.2 96 0.3 NNW 11 15 6 8 1015.3 1015.4 0.6
06/06:00pm 8.8 6.3 8.2 96 0.3 NNW 11 13 6 7 1015.1 1015.2 0.6
06/05:30pm 9.3 7.5 8.1 92 0.6 NNW 7 9 4 5 1014.7 1014.8 0.6
06/05:00pm 11.2 8.8 8.6 84 1.3 WNW 11 15 6 8 1014.5 1014.6 0.6
06/04:30pm 11.7 10.2 9.3 85 1.2 NW 7 9 4 5 1014.1 1014.2 0.6
06/04:00pm 13.0 9.8 8.6 74 2.2 W 15 19 8 10 1013.9 1014.0 0.6
06/03:30pm 13.9 10.2 8.1 68 2.9 W 17 24 9 13 1013.5 1013.6 0.6
06/03:00pm 13.9 10.6 9.4 74 2.3 W 17 22 9 12 1013.2 1013.3 0.4
06/02:30pm 13.0 10.6 9.9 81 1.6 W 13 19 7 10 1012.9 1013.0 0.4
06/02:00pm 12.5 10.8 11.2 92 0.7 WNW 11 15 6 8 1012.8 1012.9 0.4
06/01:30pm 11.8 9.5 10.6 92 0.6 NW 13 17 7 9 1012.9 1013.0 0.4
06/01:00pm 11.8 8.4 10.4 91 0.7 NW 19 24 10 13 1013.3 1013.4 0.4
06/12:30pm 12.3 9.5 10.0 86 1.2 NNW 15 19 8 10 1013.2 1013.3 0.0
06/12:00pm 12.5 7.9 9.8 83 1.4 NNW 24 30 13 16 1013.1 1013.2 0.0
06/11:30am 12.9 9.0 9.6 80 1.7 NNW 20 28 11 15 1013.4 1013.5 0.0
06/11:00am 12.4 8.1 9.2 81 1.6 NNW 22 33 12 18 1013.7 1013.8 0.0
06/10:30am 12.6 8.7 9.5 81 1.6 NNW 20 32 11 17 1013.6 1013.7 0.0
06/10:00am 11.8 7.0 9.0 83 1.4 NNW 24 32 13 17 1013.7 1013.8 0.0
06/08:30am 9.7 6.4 8.0 89 0.8 N 15 19 8 10 1013.2 1013.3 0.2
06/08:00am 9.3 6.3 7.8 90 0.7 NNE 13 15 7 8 1012.9 1013.0 0.2
06/07:30am 9.4 6.8 7.9 90 0.7 NNE 11 13 6 7 1012.9 1013.0 0.2
06/07:00am 9.4 6.5 8.2 92 0.6 N 13 17 7 9 1012.6 1012.7 0.2
06/06:30am 9.8 6.6 8.4 91 0.7 N 15 24 8 13 1012.4 1012.5 0.2
06/05:30am 9.7 6.5 6.9 83 1.3 N 13 17 7 9 1012.3 1012.4 0.2
06/05:00am 9.5 6.3 6.7 83 1.3 N 13 17 7 9 1012.4 1012.5 0.2
06/04:30am 9.8 6.5 6.4 79 1.6 N 13 17 7 9 1012.5 1012.6 0.2
06/04:00am 9.8 6.4 6.1 78 1.7 N 13 15 7 8 1012.6 1012.7 0.2
06/03:30am 9.9 6.1 6.0 77 1.8 N 15 20 8 11 1012.6 1012.7 0.2
06/03:00am 9.4 5.7 6.2 80 1.5 N 15 19 8 10 1013.0 1013.1 0.2
06/02:30am 9.5 5.3 5.8 78 1.7 N 17 26 9 14 1013.3 1013.4 0.2
06/02:00am 9.4 5.9 5.4 76 1.8 N 13 17 7 9 1013.4 1013.5 0.2
06/01:30am 9.4 5.1 5.2 75 1.9 N 17 22 9 12 1013.3 1013.4 0.2
06/01:00am 9.6 5.3 5.4 75 1.9 N 17 20 9 11 1013.6 1013.7 0.2
06/12:30am 9.6 5.3 5.4 75 1.9 N 17 24 9 13 1013.7 1013.8 0.2
06/12:00am 9.9 6.0 5.5 74 2.0 N 15 20 8 11 1014.1 1014.2 0.2
 
Date/Time
CST
Temp
°C
App
Temp
°C
Dew
Point
Rel
Hum
%
Delta-T
°C
Wind Press
QNH
hPa
Press
MSL
hPa
Rain
since 9 am
mm
Dir
 
Spd
km/h
Gust
km/h
Spd
kts
Gust
kts
05/11:30pm 9.6 6.2 6.1 79 1.6 N 13 19 7 10 1014.3 1014.4 0.2
05/11:00pm 10.0 5.9 6.1 77 1.8 N 17 22 9 12 1014.3 1014.4 0.2
05/10:30pm 10.4 6.8 6.6 77 1.8 N 15 20 8 11 1014.4 1014.5 0.2
05/10:00pm 10.3 6.4 7.1 80 1.5 N 17 30 9 16 1014.5 1014.6 0.2
05/09:30pm 10.4 7.0 7.5 82 1.4 NNW 15 20 8 11 1014.8 1014.9 0.2
05/09:00pm 10.2 7.5 7.5 83 1.3 NNW 11 15 6 8 1015.1 1015.2 0.2
05/08:30pm 10.6 6.8 7.7 82 1.4 N 17 26 9 14 1015.2 1015.3 0.2
05/08:00pm 10.4 6.9 7.0 79 1.6 N 15 22 8 12 1015.2 1015.3 0.2
05/07:30pm 10.9 7.8 7.1 77 1.8 N 13 19 7 10 1015.1 1015.2 0.2
05/07:00pm 11.2 7.7 7.2 76 1.9 N 15 22 8 12 1015.1 1015.2 0.2
05/06:30pm 11.4 8.4 7.5 77 1.9 N 13 17 7 9 1015.1 1015.2 0.2
05/06:00pm 11.3 7.9 7.8 79 1.7 N 15 19 8 10 1015.1 1015.2 0.2
05/05:30pm 11.7 8.8 8.0 78 1.8 N 13 17 7 9 1015.1 1015.2 0.2
05/05:00pm 12.0 9.2 8.4 78 1.8 N 13 17 7 9 1015.1 1015.2 0.2
05/04:30pm 12.7 9.8 8.3 74 2.2 N 13 20 7 11 1014.9 1015.0 0.2
05/04:00pm 13.2 10.3 8.2 71 2.5 N 13 19 7 10 1015.0 1015.1 0.2
05/03:30pm 13.3 9.3 8.1 71 2.6 N 19 26 10 14 1015.0 1015.1 0.2
05/03:00pm 13.7 10.0 8.1 69 2.8 NNW 17 30 9 16 1015.1 1015.2 0.2
05/02:30pm 13.6 9.4 7.5 66 3.0 NNW 19 28 10 15 1015.3 1015.4 0.2
05/02:00pm 13.4 9.1 7.7 68 2.8 NNW 20 30 11 16 1015.5 1015.6 0.2
05/01:30pm 13.2 9.1 7.7 69 2.7 NNW 19 26 10 14 1015.7 1015.8 0.2
05/01:00pm 13.1 9.0 7.8 70 2.6 N 19 26 10 14 1016.1 1016.2 0.2
05/12:30pm 13.0 8.7 7.2 68 2.8 N 19 30 10 16 1016.3 1016.4 0.2
05/12:00pm 12.5 8.1 7.6 72 2.4 N 20 28 11 15 1016.7 1016.8 0.2
05/11:30am 11.5 6.7 7.4 76 2.0 N 22 32 12 17 1017.0 1017.1 0.2
05/11:00am 11.2 6.8 7.2 76 1.9 N 20 32 11 17 1017.3 1017.4 0.2
05/10:30am 10.4 5.9 7.0 79 1.6 N 20 26 11 14 1017.8 1017.9 0.2
05/10:00am 9.7 5.1 6.5 80 1.5 N 20 28 11 15 1017.9 1018.0 0.2
05/09:30am 9.4 4.6 5.7 78 1.7 N 20 32 11 17 1017.8 1017.9 0.2
05/09:00am 8.9 3.7 5.6 80 1.5 N 22 30 12 16 1017.9 1018.0 0.4
05/08:30am 8.2 2.6 5.3 82 1.3 N 24 33 13 18 1017.9 1018.0 0.4
05/08:00am 7.7 2.8 5.0 83 1.2 N 20 30 11 16 1018.0 1018.1 0.4
05/07:30am 7.5 2.8 5.0 84 1.1 N 19 30 10 16 1018.1 1018.2 0.4
05/07:00am 7.6 3.6 4.9 83 1.2 N 15 22 8 12 1018.1 1018.2 0.4
05/06:30am 7.5 2.5 4.8 83 1.2 N 20 32 11 17 1018.0 1018.1 0.4
05/06:00am 7.3 2.6 5.0 85 1.0 N 19 30 10 16 1018.0 1018.1 0.4
05/05:30am 7.0 3.5 5.4 89 0.7 N 13 19 7 10 1018.2 1018.3 0.4
05/05:00am 7.5 3.3 5.7 88 0.8 N 17 20 9 11 1018.1 1018.2 0.4
05/04:30am 7.6 3.0 5.8 88 0.8 N 19 28 10 15 1017.8 1017.9 0.4
05/04:00am 7.4 2.8 5.8 90 0.7 N 19 28 10 15 1017.8 1017.9 0.4
05/03:30am 7.2 3.0 5.9 91 0.6 N 17 24 9 13 1018.2 1018.3 0.4
05/03:00am 7.5 3.4 6.0 90 0.7 N 17 24 9 13 1018.4 1018.5 0.4
05/02:30am 7.5 3.4 6.4 93 0.5 N 17 22 9 12 1018.7 1018.8 0.4
05/02:00am 7.8 3.8 6.7 93 0.5 N 17 26 9 14 1018.7 1018.8 0.4
05/01:30am 7.8 3.4 6.7 93 0.5 N 19 26 10 14 1018.8 1018.9 0.4
05/01:00am 8.3 4.5 7.5 95 0.4 N 17 26 9 14 1019.0 1019.1 0.4
05/12:30am 8.7 4.9 7.6 93 0.5 N 17 24 9 13 1019.2 1019.3 0.4
05/12:00am 8.9 4.8 7.9 93 0.5 N 19 26 10 14 1019.4 1019.5 0.4
 
Date/Time
CST
Temp
°C
App
Temp
°C
Dew
Point
Rel
Hum
%
Delta-T
°C
Wind Press
QNH
hPa
Press
MSL
hPa
Rain
since 9 am
mm
Dir
 
Spd
km/h
Gust
km/h
Spd
kts
Gust
kts
04/11:30pm 9.1 5.1 8.1 93 0.5 N 19 26 10 14 1019.8 1019.9 0.4
04/11:00pm 9.0 6.2 8.4 96 0.3 N 13 19 7 10 1020.0 1020.1 0.4
04/10:30pm 9.2 6.0 8.6 96 0.3 N 15 20 8 11 1020.1 1020.2 0.4
04/10:00pm 8.7 5.5 8.3 97 0.2 N 15 24 8 13 1020.4 1020.5 0.4
04/09:30pm 9.0 5.4 8.4 96 0.3 N 17 20 9 11 1020.5 1020.6 0.4
04/09:00pm 9.3 6.2 8.9 97 0.2 N 15 20 8 11 1020.5 1020.6 0.4
04/08:30pm 9.6 6.5 9.0 96 0.3 N 15 19 8 10 1020.5 1020.6 0.4
04/08:00pm 10.1 6.7 9.1 93 0.5 N 17 26 9 14 1020.6 1020.7 0.4
04/07:30pm 10.2 6.9 9.4 95 0.4 N 17 24 9 13 1020.6 1020.7 0.4
04/07:00pm 10.6 7.4 9.8 95 0.4 N 17 20 9 11 1020.6 1020.7 0.4
04/06:30pm 10.6 8.1 9.6 93 0.5 NNW 13 19 7 10 1020.7 1020.8 0.2
04/06:00pm 10.2 7.7 9.6 96 0.3 N 13 19 7 10 1020.7 1020.8 0.2
04/05:30pm 10.6 8.1 9.8 95 0.4 N 13 17 7 9 1020.5 1020.6 0.2
04/05:00pm 11.0 8.5 9.8 92 0.6 NNW 13 19 7 10 1020.5 1020.6 0.2
04/04:30pm 11.1 8.6 9.7 91 0.7 N 13 17 7 9 1020.4 1020.5 0.2
04/04:00pm 11.3 8.4 9.7 90 0.8 N 15 26 8 14 1020.5 1020.6 0.2
04/03:30pm 11.5 8.2 9.5 87 1.0 N 17 22 9 12 1020.6 1020.7 0.2
04/03:00pm 11.4 8.1 9.6 89 0.9 NNW 17 24 9 13 1020.6 1020.7 0.2
04/02:30pm 11.4 7.5 9.4 87 1.0 NNW 20 28 11 15 1020.6 1020.7 0.2
04/02:00pm 11.0 7.7 9.6 91 0.7 NNW 17 28 9 15 1020.7 1020.8 0.2
04/01:30pm 11.0 7.6 9.0 87 1.0 NNW 17 26 9 14 1021.0 1021.1 0.2
04/01:00pm 11.0 7.1 8.8 86 1.1 NNW 19 26 10 14 1021.3 1021.4 0.2
04/12:30pm 10.8 7.3 8.6 86 1.1 NNW 17 26 9 14 1021.6 1021.7 0.2
04/12:00pm 10.5 6.6 8.5 87 1.0 NNW 19 28 10 15 1022.0 1022.2 0.2
04/11:30am 10.1 6.1 8.2 88 0.9 NNW 19 28 10 15 1022.3 1022.5 0.2
04/11:00am 9.9 5.6 8.0 88 0.9 NNW 20 28 11 15 1022.6 1022.8 0.2
04/10:30am 9.4 5.8 8.2 92 0.6 NNW 17 22 9 12 1022.8 1023.0 0.2
04/10:00am 8.9 4.7 8.1 95 0.4 NNW 20 28 11 15 1022.7 1022.9 0.2
04/09:30am 8.7 4.0 7.9 95 0.4 NNW 22 30 12 16 1022.6 1022.8 0.2
04/09:00am 8.3 3.5 7.4 94 0.4 NNW 22 30 12 16 1022.6 1022.8 0.4
04/08:30am 8.1 3.7 7.2 94 0.4 NNW 20 32 11 17 1022.5 1022.7 0.4
04/08:00am 7.7 2.8 7.1 96 0.3 NNW 22 30 12 16 1022.3 1022.5 0.4
04/07:30am 7.6 3.0 6.7 94 0.4 NNW 20 32 11 17 1022.3 1022.5 0.4
04/07:00am 7.4 2.8 6.3 93 0.5 N 20 30 11 16 1022.1 1022.3 0.2
04/06:30am 7.5 3.0 6.2 91 0.6 N 19 26 10 14 1022.0 1022.2 0.2
04/06:00am 7.5 3.0 5.9 90 0.7 N 19 26 10 14 1021.9 1022.1 0.2
04/05:30am 7.4 2.7 6.1 91 0.6 N 20 28 11 15 1021.8 1022.0 0.2
04/05:00am 7.4 2.8 6.3 93 0.5 N 20 32 11 17 1021.7 1021.9 0.2
04/04:30am 7.3 2.2 6.2 93 0.5 N 22 30 12 16 1021.6 1021.7 0.2
04/04:00am 7.4 2.6 5.8 90 0.7 N 20 28 11 15 1021.7 1021.9 0.2
04/03:38am 7.3 2.7 5.7 89 0.7 NNW 19 30 10 16 1022.0 1022.2 0.2
04/03:30am 7.2 2.7 5.9 91 0.6 N 19 24 10 13 1022.0 1022.2 0.2
04/03:12am 7.4 2.8 5.4 87 0.9 NNW 19 28 10 15 1022.0 1022.2 0.2
04/03:00am 7.7 3.3 4.5 80 1.4 N 17 24 9 13 1022.0 1022.2 0.2
04/02:30am 7.2 2.7 4.4 82 1.2 N 17 22 9 12 1022.2 1022.4 0.2
04/02:00am 7.3 2.5 4.5 82 1.2 N 19 26 10 14 1022.2 1022.4 0.2
04/01:30am 7.4 3.3 4.4 81 1.3 N 15 22 8 12 1022.4 1022.6 0.2
04/01:00am 7.7 3.2 4.2 78 1.5 NNW 17 26 9 14 1022.5 1022.7 0.2
04/12:30am 7.7 2.8 4.0 77 1.6 NNW 19 26 10 14 1022.8 1023.0 0.2
04/12:00am 7.7 3.5 4.0 77 1.6 NNW 15 24 8 13 1023.2 1023.4 0.2
 
Date/Time
CST
Temp
°C
App
Temp
°C
Dew
Point
Rel
Hum
%
Delta-T
°C
Wind Press
QNH
hPa
Press
MSL
hPa
Rain
since 9 am
mm
Dir
 
Spd
km/h
Gust
km/h
Spd
kts
Gust
kts
03/11:30pm 7.5 3.0 4.0 78 1.5 N 17 24 9 13 1023.3 1023.5 0.2

Other Formats:

Comma delimited format used in spreadsheet applications
http://www.bom.gov.au/fwo/IDS60801/IDS60801.94821.axf

JavaScript Object Notation format (JSON) in row-major order
http://www.bom.gov.au/fwo/IDS60801/IDS60801.94821.json